sensor_id;sensor_type;location;lat;lon;timestamp;temperature;humidity
4461;DHT22;2243;48.812;9.232;2023-04-29T00:01:40;14.20;99.90
4461;DHT22;2243;48.812;9.232;2023-04-29T00:04:11;14.20;99.90
4461;DHT22;2243;48.812;9.232;2023-04-29T00:06:43;14.00;99.90
4461;DHT22;2243;48.812;9.232;2023-04-29T00:09:14;14.00;99.90
4461;DHT22;2243;48.812;9.232;2023-04-29T00:11:45;14.00;99.90
4461;DHT22;2243;48.812;9.232;2023-04-29T00:14:17;14.00;99.90
4461;DHT22;2243;48.812;9.232;2023-04-29T00:16:48;14.00;99.90
4461;DHT22;2243;48.812;9.232;2023-04-29T00:19:19;14.00;99.90
4461;DHT22;2243;48.812;9.232;2023-04-29T00:21:50;14.00;99.90
4461;DHT22;2243;48.812;9.232;2023-04-29T00:24:21;14.00;99.90
4461;DHT22;2243;48.812;9.232;2023-04-29T00:26:52;14.00;99.90
4461;DHT22;2243;48.812;9.232;2023-04-29T00:29:24;13.90;99.90
4461;DHT22;2243;48.812;9.232;2023-04-29T00:31:55;13.80;99.90
4461;DHT22;2243;48.812;9.232;2023-04-29T00:34:25;13.70;99.90
4461;DHT22;2243;48.812;9.232;2023-04-29T00:36:56;13.50;99.90
4461;DHT22;2243;48.812;9.232;2023-04-29T00:39:27;13.40;99.90
4461;DHT22;2243;48.812;9.232;2023-04-29T00:41:59;13.30;99.90
4461;DHT22;2243;48.812;9.232;2023-04-29T00:44:30;13.20;99.90
4461;DHT22;2243;48.812;9.232;2023-04-29T00:47:01;13.10;99.90
4461;DHT22;2243;48.812;9.232;2023-04-29T00:49:31;13.10;99.90
4461;DHT22;2243;48.812;9.232;2023-04-29T00:52:02;13.30;99.90
4461;DHT22;2243;48.812;9.232;2023-04-29T00:54:34;13.50;99.90
4461;DHT22;2243;48.812;9.232;2023-04-29T00:57:05;13.60;99.90
4461;DHT22;2243;48.812;9.232;2023-04-29T00:59:36;13.70;99.90
4461;DHT22;2243;48.812;9.232;2023-04-29T01:02:08;13.70;99.90
4461;DHT22;2243;48.812;9.232;2023-04-29T01:04:39;13.70;99.90
4461;DHT22;2243;48.812;9.232;2023-04-29T01:07:18;13.70;99.90
4461;DHT22;2243;48.812;9.232;2023-04-29T01:10:21;13.80;99.90
4461;DHT22;2243;48.812;9.232;2023-04-29T01:13:06;13.80;99.90
4461;DHT22;2243;48.812;9.232;2023-04-29T01:18:43;13.80;99.90
4461;DHT22;2243;48.812;9.232;2023-04-29T01:21:16;13.80;99.90
4461;DHT22;2243;48.812;9.232;2023-04-29T01:23:47;13.70;99.90
4461;DHT22;2243;48.812;9.232;2023-04-29T01:26:27;13.60;99.90
4461;DHT22;2243;48.812;9.232;2023-04-29T01:29:24;13.60;99.90
4461;DHT22;2243;48.812;9.232;2023-04-29T01:32:05;13.50;99.90
4461;DHT22;2243;48.812;9.232;2023-04-29T01:34:43;13.60;99.90
4461;DHT22;2243;48.812;9.232;2023-04-29T01:37:34;13.60;99.90
4461;DHT22;2243;48.812;9.232;2023-04-29T01:40:48;13.60;99.90
4461;DHT22;2243;48.812;9.232;2023-04-29T01:43:29;13.50;99.90
4461;DHT22;2243;48.812;9.232;2023-04-29T01:46:05;13.40;99.90
4461;DHT22;2243;48.812;9.232;2023-04-29T01:48:39;13.20;99.90
4461;DHT22;2243;48.812;9.232;2023-04-29T01:51:10;13.00;99.90
4461;DHT22;2243;48.812;9.232;2023-04-29T01:53:41;12.90;99.90
4461;DHT22;2243;48.812;9.232;2023-04-29T01:56:12;12.80;99.90
4461;DHT22;2243;48.812;9.232;2023-04-29T01:58:43;12.70;99.90
4461;DHT22;2243;48.812;9.232;2023-04-29T02:01:14;12.70;99.90
4461;DHT22;2243;48.812;9.232;2023-04-29T02:03:45;12.60;99.90
4461;DHT22;2243;48.812;9.232;2023-04-29T02:06:16;12.60;99.90
4461;DHT22;2243;48.812;9.232;2023-04-29T02:08:47;12.50;99.90
4461;DHT22;2243;48.812;9.232;2023-04-29T02:11:18;12.50;99.90
4461;DHT22;2243;48.812;9.232;2023-04-29T02:13:50;12.40;99.90
4461;DHT22;2243;48.812;9.232;2023-04-29T02:16:22;12.30;99.90
4461;DHT22;2243;48.812;9.232;2023-04-29T02:18:53;12.30;99.90
4461;DHT22;2243;48.812;9.232;2023-04-29T02:21:24;12.30;99.90
4461;DHT22;2243;48.812;9.232;2023-04-29T02:23:55;12.20;99.90
4461;DHT22;2243;48.812;9.232;2023-04-29T02:26:26;12.20;99.90
4461;DHT22;2243;48.812;9.232;2023-04-29T02:28:57;12.20;99.90
4461;DHT22;2243;48.812;9.232;2023-04-29T02:31:28;12.00;99.90
4461;DHT22;2243;48.812;9.232;2023-04-29T02:33:59;12.00;99.90
4461;DHT22;2243;48.812;9.232;2023-04-29T02:36:30;11.90;99.90
4461;DHT22;2243;48.812;9.232;2023-04-29T02:39:02;11.90;99.90
4461;DHT22;2243;48.812;9.232;2023-04-29T02:41:33;11.90;99.90
4461;DHT22;2243;48.812;9.232;2023-04-29T02:44:04;11.80;99.90
4461;DHT22;2243;48.812;9.232;2023-04-29T02:46:35;11.80;99.90
4461;DHT22;2243;48.812;9.232;2023-04-29T02:49:07;11.80;99.90
4461;DHT22;2243;48.812;9.232;2023-04-29T02:51:38;11.70;99.90
4461;DHT22;2243;48.812;9.232;2023-04-29T02:54:09;11.70;99.90
4461;DHT22;2243;48.812;9.232;2023-04-29T02:56:41;11.60;99.90
4461;DHT22;2243;48.812;9.232;2023-04-29T02:59:13;11.60;99.90
4461;DHT22;2243;48.812;9.232;2023-04-29T03:01:44;11.60;99.90
4461;DHT22;2243;48.812;9.232;2023-04-29T03:04:15;11.50;99.90
4461;DHT22;2243;48.812;9.232;2023-04-29T03:06:46;11.50;99.90
4461;DHT22;2243;48.812;9.232;2023-04-29T03:09:17;11.40;99.90
4461;DHT22;2243;48.812;9.232;2023-04-29T03:11:48;11.30;99.90
4461;DHT22;2243;48.812;9.232;2023-04-29T03:14:19;11.30;99.90
4461;DHT22;2243;48.812;9.232;2023-04-29T03:16:50;11.30;99.90
4461;DHT22;2243;48.812;9.232;2023-04-29T03:19:21;11.20;99.90
4461;DHT22;2243;48.812;9.232;2023-04-29T03:21:52;11.20;99.90
4461;DHT22;2243;48.812;9.232;2023-04-29T03:24:23;11.10;99.90
4461;DHT22;2243;48.812;9.232;2023-04-29T03:26:54;11.10;99.90
4461;DHT22;2243;48.812;9.232;2023-04-29T03:29:25;11.00;99.90
4461;DHT22;2243;48.812;9.232;2023-04-29T03:31:57;11.00;99.90
4461;DHT22;2243;48.812;9.232;2023-04-29T03:34:28;11.00;99.90
4461;DHT22;2243;48.812;9.232;2023-04-29T03:36:59;10.90;99.90
4461;DHT22;2243;48.812;9.232;2023-04-29T03:39:30;10.90;99.90
4461;DHT22;2243;48.812;9.232;2023-04-29T03:42:02;10.90;99.90
4461;DHT22;2243;48.812;9.232;2023-04-29T03:44:34;10.90;99.90
4461;DHT22;2243;48.812;9.232;2023-04-29T03:47:05;10.80;99.90
4461;DHT22;2243;48.812;9.232;2023-04-29T03:49:36;10.80;99.90
4461;DHT22;2243;48.812;9.232;2023-04-29T03:52:07;10.80;99.90
4461;DHT22;2243;48.812;9.232;2023-04-29T03:54:38;10.80;99.90
4461;DHT22;2243;48.812;9.232;2023-04-29T03:57:09;10.70;99.90
4461;DHT22;2243;48.812;9.232;2023-04-29T03:59:40;10.70;99.90
4461;DHT22;2243;48.812;9.232;2023-04-29T04:02:11;10.70;99.90
4461;DHT22;2243;48.812;9.232;2023-04-29T04:04:42;10.70;99.90
4461;DHT22;2243;48.812;9.232;2023-04-29T04:07:13;10.70;99.90
4461;DHT22;2243;48.812;9.232;2023-04-29T04:09:44;10.70;99.90
4461;DHT22;2243;48.812;9.232;2023-04-29T04:12:15;10.70;99.90
4461;DHT22;2243;48.812;9.232;2023-04-29T04:14:46;10.70;99.90
4461;DHT22;2243;48.812;9.232;2023-04-29T04:17:17;10.60;99.90
4461;DHT22;2243;48.812;9.232;2023-04-29T04:19:48;10.60;99.90
4461;DHT22;2243;48.812;9.232;2023-04-29T04:22:19;10.60;99.90
4461;DHT22;2243;48.812;9.232;2023-04-29T04:24:50;10.60;99.90
4461;DHT22;2243;48.812;9.232;2023-04-29T04:27:21;10.60;99.90
4461;DHT22;2243;48.812;9.232;2023-04-29T04:29:53;10.60;99.90
4461;DHT22;2243;48.812;9.232;2023-04-29T04:32:25;10.60;99.90
4461;DHT22;2243;48.812;9.232;2023-04-29T04:34:56;10.50;99.90
4461;DHT22;2243;48.812;9.232;2023-04-29T04:37:27;10.40;99.90
4461;DHT22;2243;48.812;9.232;2023-04-29T04:39:58;10.40;99.90
4461;DHT22;2243;48.812;9.232;2023-04-29T04:42:29;10.40;99.90
4461;DHT22;2243;48.812;9.232;2023-04-29T04:45:00;10.40;99.90
4461;DHT22;2243;48.812;9.232;2023-04-29T04:47:31;10.40;99.90
4461;DHT22;2243;48.812;9.232;2023-04-29T04:50:02;10.30;99.90
4461;DHT22;2243;48.812;9.232;2023-04-29T04:52:34;10.30;99.90
4461;DHT22;2243;48.812;9.232;2023-04-29T04:55:05;10.30;99.90
4461;DHT22;2243;48.812;9.232;2023-04-29T04:57:36;10.30;99.90
4461;DHT22;2243;48.812;9.232;2023-04-29T05:00:08;10.30;99.90
4461;DHT22;2243;48.812;9.232;2023-04-29T05:02:39;10.40;99.90
4461;DHT22;2243;48.812;9.232;2023-04-29T05:05:10;10.50;99.90
4461;DHT22;2243;48.812;9.232;2023-04-29T05:07:41;10.50;99.90
4461;DHT22;2243;48.812;9.232;2023-04-29T05:10:13;10.50;99.90
4461;DHT22;2243;48.812;9.232;2023-04-29T05:12:44;10.40;99.90
4461;DHT22;2243;48.812;9.232;2023-04-29T05:15:15;10.40;99.90
4461;DHT22;2243;48.812;9.232;2023-04-29T05:17:46;10.40;99.90
4461;DHT22;2243;48.812;9.232;2023-04-29T05:20:17;10.40;99.90
4461;DHT22;2243;48.812;9.232;2023-04-29T05:22:50;10.50;99.90
4461;DHT22;2243;48.812;9.232;2023-04-29T05:25:20;10.50;99.90
4461;DHT22;2243;48.812;9.232;2023-04-29T05:27:51;10.60;99.90
4461;DHT22;2243;48.812;9.232;2023-04-29T05:30:23;10.70;99.90
4461;DHT22;2243;48.812;9.232;2023-04-29T05:32:53;10.80;99.90
4461;DHT22;2243;48.812;9.232;2023-04-29T05:35:24;10.90;99.90
4461;DHT22;2243;48.812;9.232;2023-04-29T05:37:56;11.00;99.90
4461;DHT22;2243;48.812;9.232;2023-04-29T05:40:26;11.20;99.90
4461;DHT22;2243;48.812;9.232;2023-04-29T05:42:57;11.30;99.90
4461;DHT22;2243;48.812;9.232;2023-04-29T05:45:29;11.40;99.90
4461;DHT22;2243;48.812;9.232;2023-04-29T05:48:00;11.40;99.90
4461;DHT22;2243;48.812;9.232;2023-04-29T05:50:31;11.50;99.90
4461;DHT22;2243;48.812;9.232;2023-04-29T05:53:04;11.60;99.90
4461;DHT22;2243;48.812;9.232;2023-04-29T05:55:35;11.80;99.90
4461;DHT22;2243;48.812;9.232;2023-04-29T05:58:06;11.90;99.90
4461;DHT22;2243;48.812;9.232;2023-04-29T06:00:37;12.00;99.90
4461;DHT22;2243;48.812;9.232;2023-04-29T06:03:09;12.10;99.90
4461;DHT22;2243;48.812;9.232;2023-04-29T06:05:41;12.20;99.90
4461;DHT22;2243;48.812;9.232;2023-04-29T06:08:13;12.40;99.90
4461;DHT22;2243;48.812;9.232;2023-04-29T06:10:44;12.60;99.90
4461;DHT22;2243;48.812;9.232;2023-04-29T06:13:16;12.90;99.90
4461;DHT22;2243;48.812;9.232;2023-04-29T06:15:46;13.00;99.90
4461;DHT22;2243;48.812;9.232;2023-04-29T06:18:17;13.10;99.90
4461;DHT22;2243;48.812;9.232;2023-04-29T06:20:48;13.20;99.90
4461;DHT22;2243;48.812;9.232;2023-04-29T06:23:19;13.30;99.90
4461;DHT22;2243;48.812;9.232;2023-04-29T06:25:50;13.40;99.90
4461;DHT22;2243;48.812;9.232;2023-04-29T06:28:22;13.40;99.90
4461;DHT22;2243;48.812;9.232;2023-04-29T06:30:53;13.60;99.90
4461;DHT22;2243;48.812;9.232;2023-04-29T06:33:24;13.60;99.90
4461;DHT22;2243;48.812;9.232;2023-04-29T06:35:56;13.70;99.90
4461;DHT22;2243;48.812;9.232;2023-04-29T06:38:27;13.80;99.90
4461;DHT22;2243;48.812;9.232;2023-04-29T06:40:58;13.90;99.90
4461;DHT22;2243;48.812;9.232;2023-04-29T06:43:30;13.90;99.90
4461;DHT22;2243;48.812;9.232;2023-04-29T06:46:01;13.90;99.90
4461;DHT22;2243;48.812;9.232;2023-04-29T06:48:32;13.90;99.90
4461;DHT22;2243;48.812;9.232;2023-04-29T06:51:03;13.90;99.90
4461;DHT22;2243;48.812;9.232;2023-04-29T06:53:34;14.00;99.90
4461;DHT22;2243;48.812;9.232;2023-04-29T06:56:05;14.10;99.90
4461;DHT22;2243;48.812;9.232;2023-04-29T06:58:37;14.10;99.90
4461;DHT22;2243;48.812;9.232;2023-04-29T07:01:08;14.00;99.90
4461;DHT22;2243;48.812;9.232;2023-04-29T07:03:40;14.00;99.90
4461;DHT22;2243;48.812;9.232;2023-04-29T07:06:12;14.00;99.90
4461;DHT22;2243;48.812;9.232;2023-04-29T07:08:43;13.90;99.90
4461;DHT22;2243;48.812;9.232;2023-04-29T07:11:14;13.90;99.90
4461;DHT22;2243;48.812;9.232;2023-04-29T07:13:45;13.80;99.90
4461;DHT22;2243;48.812;9.232;2023-04-29T07:16:16;13.90;99.90
4461;DHT22;2243;48.812;9.232;2023-04-29T07:18:49;14.00;99.90
4461;DHT22;2243;48.812;9.232;2023-04-29T07:21:20;14.20;99.90
4461;DHT22;2243;48.812;9.232;2023-04-29T07:23:51;14.30;99.90
4461;DHT22;2243;48.812;9.232;2023-04-29T07:26:23;14.30;99.90
4461;DHT22;2243;48.812;9.232;2023-04-29T07:28:54;14.40;99.90
4461;DHT22;2243;48.812;9.232;2023-04-29T07:31:25;14.30;99.90
4461;DHT22;2243;48.812;9.232;2023-04-29T07:33:56;14.30;99.90
4461;DHT22;2243;48.812;9.232;2023-04-29T07:36:27;14.40;99.90
4461;DHT22;2243;48.812;9.232;2023-04-29T07:38:58;14.50;99.90
4461;DHT22;2243;48.812;9.232;2023-04-29T07:41:29;14.60;99.90
4461;DHT22;2243;48.812;9.232;2023-04-29T07:44:00;14.60;99.90
4461;DHT22;2243;48.812;9.232;2023-04-29T07:46:31;14.70;99.90
4461;DHT22;2243;48.812;9.232;2023-04-29T07:49:02;14.80;99.90
4461;DHT22;2243;48.812;9.232;2023-04-29T07:51:40;14.90;99.90
4461;DHT22;2243;48.812;9.232;2023-04-29T07:54:28;14.80;99.90
4461;DHT22;2243;48.812;9.232;2023-04-29T07:56:59;14.90;99.90
4461;DHT22;2243;48.812;9.232;2023-04-29T07:59:31;14.90;99.90
4461;DHT22;2243;48.812;9.232;2023-04-29T08:02:02;15.00;99.90
4461;DHT22;2243;48.812;9.232;2023-04-29T08:04:33;15.00;99.90
4461;DHT22;2243;48.812;9.232;2023-04-29T08:07:04;14.90;99.90
4461;DHT22;2243;48.812;9.232;2023-04-29T08:09:35;14.80;99.90
4461;DHT22;2243;48.812;9.232;2023-04-29T08:12:07;14.60;99.90
4461;DHT22;2243;48.812;9.232;2023-04-29T08:14:38;14.50;99.90
4461;DHT22;2243;48.812;9.232;2023-04-29T08:17:09;14.50;99.90
4461;DHT22;2243;48.812;9.232;2023-04-29T08:19:40;14.40;99.90
4461;DHT22;2243;48.812;9.232;2023-04-29T08:22:11;14.40;99.90
4461;DHT22;2243;48.812;9.232;2023-04-29T08:24:43;14.40;99.90
4461;DHT22;2243;48.812;9.232;2023-04-29T08:27:14;14.40;99.90
4461;DHT22;2243;48.812;9.232;2023-04-29T08:29:46;14.50;99.90
4461;DHT22;2243;48.812;9.232;2023-04-29T08:32:16;14.60;99.90
4461;DHT22;2243;48.812;9.232;2023-04-29T08:34:48;14.60;99.90
4461;DHT22;2243;48.812;9.232;2023-04-29T08:37:18;14.60;99.90
4461;DHT22;2243;48.812;9.232;2023-04-29T08:39:50;14.60;99.90
4461;DHT22;2243;48.812;9.232;2023-04-29T08:42:32;14.70;99.90
4461;DHT22;2243;48.812;9.232;2023-04-29T08:45:04;14.80;99.90
4461;DHT22;2243;48.812;9.232;2023-04-29T08:47:36;14.80;99.90
4461;DHT22;2243;48.812;9.232;2023-04-29T08:50:08;14.80;99.90
4461;DHT22;2243;48.812;9.232;2023-04-29T08:52:39;14.80;99.90
4461;DHT22;2243;48.812;9.232;2023-04-29T08:55:10;15.00;99.90
4461;DHT22;2243;48.812;9.232;2023-04-29T08:57:42;15.00;99.90
4461;DHT22;2243;48.812;9.232;2023-04-29T09:00:13;15.10;99.90
4461;DHT22;2243;48.812;9.232;2023-04-29T09:02:52;15.00;99.90
4461;DHT22;2243;48.812;9.232;2023-04-29T09:05:25;15.00;99.90
4461;DHT22;2243;48.812;9.232;2023-04-29T09:07:58;14.90;99.90
4461;DHT22;2243;48.812;9.232;2023-04-29T09:10:31;14.80;99.90
4461;DHT22;2243;48.812;9.232;2023-04-29T09:13:02;14.80;99.90
4461;DHT22;2243;48.812;9.232;2023-04-29T09:15:37;14.80;99.90
4461;DHT22;2243;48.812;9.232;2023-04-29T09:18:10;14.90;99.90
4461;DHT22;2243;48.812;9.232;2023-04-29T09:20:41;14.90;99.90
4461;DHT22;2243;48.812;9.232;2023-04-29T09:23:12;15.00;99.90
4461;DHT22;2243;48.812;9.232;2023-04-29T09:25:55;15.10;99.90
4461;DHT22;2243;48.812;9.232;2023-04-29T09:28:26;15.00;99.90
4461;DHT22;2243;48.812;9.232;2023-04-29T09:30:57;15.00;99.90
4461;DHT22;2243;48.812;9.232;2023-04-29T09:33:28;15.10;99.90
4461;DHT22;2243;48.812;9.232;2023-04-29T09:36:00;15.20;99.90
4461;DHT22;2243;48.812;9.232;2023-04-29T09:38:31;15.20;99.90
4461;DHT22;2243;48.812;9.232;2023-04-29T09:41:08;15.20;99.90
4461;DHT22;2243;48.812;9.232;2023-04-29T09:43:41;15.30;99.90
4461;DHT22;2243;48.812;9.232;2023-04-29T09:46:12;15.50;99.90
4461;DHT22;2243;48.812;9.232;2023-04-29T09:48:43;15.70;99.90
4461;DHT22;2243;48.812;9.232;2023-04-29T09:51:14;15.80;99.90
4461;DHT22;2243;48.812;9.232;2023-04-29T09:53:45;15.80;99.90
4461;DHT22;2243;48.812;9.232;2023-04-29T09:56:16;15.80;99.90
4461;DHT22;2243;48.812;9.232;2023-04-29T09:58:47;16.00;99.90
4461;DHT22;2243;48.812;9.232;2023-04-29T10:01:19;16.10;99.90
4461;DHT22;2243;48.812;9.232;2023-04-29T10:03:54;16.00;99.90
4461;DHT22;2243;48.812;9.232;2023-04-29T10:06:26;15.90;99.90
4461;DHT22;2243;48.812;9.232;2023-04-29T10:08:58;15.90;99.90
4461;DHT22;2243;48.812;9.232;2023-04-29T10:11:30;15.90;99.90
4461;DHT22;2243;48.812;9.232;2023-04-29T10:14:03;16.00;99.90
4461;DHT22;2243;48.812;9.232;2023-04-29T10:16:41;16.20;99.90
4461;DHT22;2243;48.812;9.232;2023-04-29T10:22:26;16.20;99.90
4461;DHT22;2243;48.812;9.232;2023-04-29T10:25:00;16.20;99.90
4461;DHT22;2243;48.812;9.232;2023-04-29T10:27:33;16.30;99.90
4461;DHT22;2243;48.812;9.232;2023-04-29T10:30:06;16.30;99.90
4461;DHT22;2243;48.812;9.232;2023-04-29T10:32:46;16.10;99.90
4461;DHT22;2243;48.812;9.232;2023-04-29T10:35:21;16.00;99.90
4461;DHT22;2243;48.812;9.232;2023-04-29T10:37:59;16.20;99.90
4461;DHT22;2243;48.812;9.232;2023-04-29T10:40:41;16.30;99.90
4461;DHT22;2243;48.812;9.232;2023-04-29T10:43:22;16.20;99.90
4461;DHT22;2243;48.812;9.232;2023-04-29T10:48:47;16.50;99.90
4461;DHT22;2243;48.812;9.232;2023-04-29T10:51:31;16.60;99.90
4461;DHT22;2243;48.812;9.232;2023-04-29T10:54:09;16.60;99.90
4461;DHT22;2243;48.812;9.232;2023-04-29T10:56:52;16.50;99.90
4461;DHT22;2243;48.812;9.232;2023-04-29T11:01:58;16.30;99.90
4461;DHT22;2243;48.812;9.232;2023-04-29T11:04:30;16.50;99.90
4461;DHT22;2243;48.812;9.232;2023-04-29T11:07:01;16.70;99.90
4461;DHT22;2243;48.812;9.232;2023-04-29T11:09:34;16.90;99.90
4461;DHT22;2243;48.812;9.232;2023-04-29T11:12:08;16.90;99.90
4461;DHT22;2243;48.812;9.232;2023-04-29T11:14:42;16.60;99.90
4461;DHT22;2243;48.812;9.232;2023-04-29T11:17:15;16.60;99.90
4461;DHT22;2243;48.812;9.232;2023-04-29T11:19:49;16.80;99.90
4461;DHT22;2243;48.812;9.232;2023-04-29T11:22:27;16.90;99.90
4461;DHT22;2243;48.812;9.232;2023-04-29T11:25:05;17.00;99.90
4461;DHT22;2243;48.812;9.232;2023-04-29T11:27:38;17.40;99.90
4461;DHT22;2243;48.812;9.232;2023-04-29T11:30:11;17.30;99.90
4461;DHT22;2243;48.812;9.232;2023-04-29T11:32:43;17.40;99.90
4461;DHT22;2243;48.812;9.232;2023-04-29T11:35:16;17.60;99.90
4461;DHT22;2243;48.812;9.232;2023-04-29T11:37:47;17.60;99.90
4461;DHT22;2243;48.812;9.232;2023-04-29T11:40:19;17.40;99.90
4461;DHT22;2243;48.812;9.232;2023-04-29T11:42:50;17.30;99.90
4461;DHT22;2243;48.812;9.232;2023-04-29T11:45:21;17.30;99.90
4461;DHT22;2243;48.812;9.232;2023-04-29T11:47:52;17.40;99.90
4461;DHT22;2243;48.812;9.232;2023-04-29T11:50:25;17.50;99.90
4461;DHT22;2243;48.812;9.232;2023-04-29T11:52:57;17.60;99.90
4461;DHT22;2243;48.812;9.232;2023-04-29T11:55:28;17.70;99.90
4461;DHT22;2243;48.812;9.232;2023-04-29T11:57:59;17.70;99.90
4461;DHT22;2243;48.812;9.232;2023-04-29T12:00:30;17.70;99.90
4461;DHT22;2243;48.812;9.232;2023-04-29T12:03:15;17.80;99.90
4461;DHT22;2243;48.812;9.232;2023-04-29T12:05:51;17.70;99.90
4461;DHT22;2243;48.812;9.232;2023-04-29T12:08:25;17.70;99.90
4461;DHT22;2243;48.812;9.232;2023-04-29T12:10:58;17.60;99.90
4461;DHT22;2243;48.812;9.232;2023-04-29T12:13:30;18.00;99.90
4461;DHT22;2243;48.812;9.232;2023-04-29T12:16:01;18.30;99.90
4461;DHT22;2243;48.812;9.232;2023-04-29T12:18:33;18.50;99.90
4461;DHT22;2243;48.812;9.232;2023-04-29T12:21:04;18.70;99.90
4461;DHT22;2243;48.812;9.232;2023-04-29T12:23:36;19.00;99.90
4461;DHT22;2243;48.812;9.232;2023-04-29T12:26:07;19.00;99.90
4461;DHT22;2243;48.812;9.232;2023-04-29T12:28:41;18.90;99.90
4461;DHT22;2243;48.812;9.232;2023-04-29T12:31:14;19.00;99.90
4461;DHT22;2243;48.812;9.232;2023-04-29T12:33:45;19.00;99.90
4461;DHT22;2243;48.812;9.232;2023-04-29T12:36:17;18.80;99.90
4461;DHT22;2243;48.812;9.232;2023-04-29T12:38:48;18.70;99.90
4461;DHT22;2243;48.812;9.232;2023-04-29T12:41:19;18.70;99.90
4461;DHT22;2243;48.812;9.232;2023-04-29T12:43:50;18.60;99.90
4461;DHT22;2243;48.812;9.232;2023-04-29T12:46:22;18.60;99.90
4461;DHT22;2243;48.812;9.232;2023-04-29T12:48:53;18.40;99.90
4461;DHT22;2243;48.812;9.232;2023-04-29T12:51:24;18.50;99.90
4461;DHT22;2243;48.812;9.232;2023-04-29T12:53:56;18.10;99.90
4461;DHT22;2243;48.812;9.232;2023-04-29T12:56:31;18.00;99.90
4461;DHT22;2243;48.812;9.232;2023-04-29T12:59:09;18.00;99.90
4461;DHT22;2243;48.812;9.232;2023-04-29T13:01:41;18.00;99.90
4461;DHT22;2243;48.812;9.232;2023-04-29T13:04:12;18.10;99.90
4461;DHT22;2243;48.812;9.232;2023-04-29T13:06:43;18.10;99.90
4461;DHT22;2243;48.812;9.232;2023-04-29T13:09:14;18.10;99.90
4461;DHT22;2243;48.812;9.232;2023-04-29T13:11:48;18.20;99.90
4461;DHT22;2243;48.812;9.232;2023-04-29T13:14:19;18.40;99.90
4461;DHT22;2243;48.812;9.232;2023-04-29T13:16:50;18.40;99.90
4461;DHT22;2243;48.812;9.232;2023-04-29T13:19:21;18.30;99.90
4461;DHT22;2243;48.812;9.232;2023-04-29T13:21:55;18.50;99.90
4461;DHT22;2243;48.812;9.232;2023-04-29T13:24:26;18.50;99.90
4461;DHT22;2243;48.812;9.232;2023-04-29T13:26:57;18.60;99.90
4461;DHT22;2243;48.812;9.232;2023-04-29T13:29:28;18.80;99.90
4461;DHT22;2243;48.812;9.232;2023-04-29T13:31:59;18.60;99.90
4461;DHT22;2243;48.812;9.232;2023-04-29T13:34:30;18.60;99.90
4461;DHT22;2243;48.812;9.232;2023-04-29T13:37:01;18.60;99.90
4461;DHT22;2243;48.812;9.232;2023-04-29T13:39:32;18.60;99.90
4461;DHT22;2243;48.812;9.232;2023-04-29T13:42:07;18.70;99.90
4461;DHT22;2243;48.812;9.232;2023-04-29T13:44:40;18.70;99.90
4461;DHT22;2243;48.812;9.232;2023-04-29T13:47:30;18.70;99.90
4461;DHT22;2243;48.812;9.232;2023-04-29T13:50:01;18.40;99.90
4461;DHT22;2243;48.812;9.232;2023-04-29T13:52:52;17.90;99.90
4461;DHT22;2243;48.812;9.232;2023-04-29T13:55:43;17.80;99.90
4461;DHT22;2243;48.812;9.232;2023-04-29T13:58:17;18.00;99.90
4461;DHT22;2243;48.812;9.232;2023-04-29T14:00:51;18.30;99.90
4461;DHT22;2243;48.812;9.232;2023-04-29T14:03:25;18.70;99.90
4461;DHT22;2243;48.812;9.232;2023-04-29T14:05:56;19.00;99.90
4461;DHT22;2243;48.812;9.232;2023-04-29T14:08:27;19.20;99.90
4461;DHT22;2243;48.812;9.232;2023-04-29T14:10:58;19.10;99.90
4461;DHT22;2243;48.812;9.232;2023-04-29T14:13:29;19.00;99.90
4461;DHT22;2243;48.812;9.232;2023-04-29T14:16:00;19.10;99.90
4461;DHT22;2243;48.812;9.232;2023-04-29T14:18:33;19.10;99.90
4461;DHT22;2243;48.812;9.232;2023-04-29T14:21:04;19.40;99.70
4461;DHT22;2243;48.812;9.232;2023-04-29T14:23:35;19.30;99.20
4461;DHT22;2243;48.812;9.232;2023-04-29T14:26:06;19.20;99.90
4461;DHT22;2243;48.812;9.232;2023-04-29T14:28:58;19.10;99.90
4461;DHT22;2243;48.812;9.232;2023-04-29T14:31:32;19.20;99.90
4461;DHT22;2243;48.812;9.232;2023-04-29T14:34:11;19.40;99.90
4461;DHT22;2243;48.812;9.232;2023-04-29T14:36:42;19.60;99.90
4461;DHT22;2243;48.812;9.232;2023-04-29T14:39:16;19.60;99.40
4461;DHT22;2243;48.812;9.232;2023-04-29T14:41:47;19.70;99.40
4461;DHT22;2243;48.812;9.232;2023-04-29T14:44:18;19.50;98.70
4461;DHT22;2243;48.812;9.232;2023-04-29T14:46:49;19.30;99.80
4461;DHT22;2243;48.812;9.232;2023-04-29T14:49:20;19.40;99.30
4461;DHT22;2243;48.812;9.232;2023-04-29T14:51:51;19.60;99.30
4461;DHT22;2243;48.812;9.232;2023-04-29T14:54:22;19.90;98.50
4461;DHT22;2243;48.812;9.232;2023-04-29T14:56:54;20.10;97.50
4461;DHT22;2243;48.812;9.232;2023-04-29T14:59:25;19.80;98.20
4461;DHT22;2243;48.812;9.232;2023-04-29T15:01:58;19.50;99.00
4461;DHT22;2243;48.812;9.232;2023-04-29T15:04:29;19.50;98.40
4461;DHT22;2243;48.812;9.232;2023-04-29T15:07:00;19.20;98.40
4461;DHT22;2243;48.812;9.232;2023-04-29T15:09:31;19.30;98.20
4461;DHT22;2243;48.812;9.232;2023-04-29T15:12:02;19.10;98.40
4461;DHT22;2243;48.812;9.232;2023-04-29T15:14:34;18.70;98.90
4461;DHT22;2243;48.812;9.232;2023-04-29T15:17:05;18.30;99.80
4461;DHT22;2243;48.812;9.232;2023-04-29T15:19:36;18.20;99.90
4461;DHT22;2243;48.812;9.232;2023-04-29T15:22:07;18.20;99.90
4461;DHT22;2243;48.812;9.232;2023-04-29T15:24:38;18.00;99.90
4461;DHT22;2243;48.812;9.232;2023-04-29T15:27:09;18.00;99.90
4461;DHT22;2243;48.812;9.232;2023-04-29T15:29:40;17.80;99.90
4461;DHT22;2243;48.812;9.232;2023-04-29T15:32:11;17.50;99.90
4461;DHT22;2243;48.812;9.232;2023-04-29T15:34:42;17.50;99.90
4461;DHT22;2243;48.812;9.232;2023-04-29T15:37:13;17.40;99.90
4461;DHT22;2243;48.812;9.232;2023-04-29T15:39:44;17.10;99.90
4461;DHT22;2243;48.812;9.232;2023-04-29T15:42:15;17.30;99.90
4461;DHT22;2243;48.812;9.232;2023-04-29T15:44:46;17.20;99.90
4461;DHT22;2243;48.812;9.232;2023-04-29T15:47:17;17.10;99.90
4461;DHT22;2243;48.812;9.232;2023-04-29T15:49:48;17.00;99.90
4461;DHT22;2243;48.812;9.232;2023-04-29T15:52:22;16.80;99.90
4461;DHT22;2243;48.812;9.232;2023-04-29T15:54:53;16.70;99.90
4461;DHT22;2243;48.812;9.232;2023-04-29T15:57:24;16.50;99.90
4461;DHT22;2243;48.812;9.232;2023-04-29T15:59:55;16.50;99.90
4461;DHT22;2243;48.812;9.232;2023-04-29T16:02:26;16.50;99.90
4461;DHT22;2243;48.812;9.232;2023-04-29T16:04:57;16.60;99.90
4461;DHT22;2243;48.812;9.232;2023-04-29T16:07:28;16.60;99.90
4461;DHT22;2243;48.812;9.232;2023-04-29T16:10:00;16.80;99.90
4461;DHT22;2243;48.812;9.232;2023-04-29T16:12:31;16.60;99.90
4461;DHT22;2243;48.812;9.232;2023-04-29T16:15:02;16.60;99.90
4461;DHT22;2243;48.812;9.232;2023-04-29T16:17:34;16.30;99.90
4461;DHT22;2243;48.812;9.232;2023-04-29T16:20:06;16.40;99.90
4461;DHT22;2243;48.812;9.232;2023-04-29T16:22:37;16.40;99.90
4461;DHT22;2243;48.812;9.232;2023-04-29T16:25:08;16.50;99.90
4461;DHT22;2243;48.812;9.232;2023-04-29T16:27:40;16.40;99.90
4461;DHT22;2243;48.812;9.232;2023-04-29T16:30:11;16.40;99.90
4461;DHT22;2243;48.812;9.232;2023-04-29T16:32:42;16.30;99.90
4461;DHT22;2243;48.812;9.232;2023-04-29T16:35:13;16.20;99.90
4461;DHT22;2243;48.812;9.232;2023-04-29T16:37:45;16.00;99.90
4461;DHT22;2243;48.812;9.232;2023-04-29T16:40:16;16.10;99.90
4461;DHT22;2243;48.812;9.232;2023-04-29T16:42:47;16.10;99.90
4461;DHT22;2243;48.812;9.232;2023-04-29T16:45:18;16.20;99.90
4461;DHT22;2243;48.812;9.232;2023-04-29T16:47:51;16.20;99.90